sensor_id;sensor_type;location;lat;lon;timestamp;pressure;altitude;pressure_sealevel;temperature;humidity
54172;BME280;40076;52.354;4.970;2022-10-26T00:01:12;101443.13;;;13.11;100.00
54172;BME280;40076;52.354;4.970;2022-10-26T00:03:39;101436.91;;;13.11;100.00
54172;BME280;40076;52.354;4.970;2022-10-26T00:06:25;101444.56;;;13.09;100.00
54172;BME280;40076;52.354;4.970;2022-10-26T00:08:52;101432.91;;;13.08;100.00
54172;BME280;40076;52.354;4.970;2022-10-26T00:11:20;101429.41;;;13.08;100.00
54172;BME280;40076;52.354;4.970;2022-10-26T00:13:45;101420.16;;;13.09;100.00
54172;BME280;40076;52.354;4.970;2022-10-26T00:16:17;101419.34;;;13.08;100.00
54172;BME280;40076;52.354;4.970;2022-10-26T00:18:43;101423.66;;;13.09;100.00
54172;BME280;40076;52.354;4.970;2022-10-26T00:21:09;101422.06;;;13.08;100.00
54172;BME280;40076;52.354;4.970;2022-10-26T00:23:36;101425.88;;;13.07;100.00
54172;BME280;40076;52.354;4.970;2022-10-26T00:26:02;101416.94;;;13.07;100.00
54172;BME280;40076;52.354;4.970;2022-10-26T00:28:28;101413.13;;;13.08;100.00
54172;BME280;40076;52.354;4.970;2022-10-26T00:30:53;101411.53;;;13.07;100.00
54172;BME280;40076;52.354;4.970;2022-10-26T00:33:19;101407.56;;;13.04;100.00
54172;BME280;40076;52.354;4.970;2022-10-26T00:35:52;101411.03;;;13.05;100.00
54172;BME280;40076;52.354;4.970;2022-10-26T00:38:17;101409.13;;;13.05;100.00
54172;BME280;40076;52.354;4.970;2022-10-26T00:40:43;101403.88;;;13.00;100.00
54172;BME280;40076;52.354;4.970;2022-10-26T00:43:14;101403.38;;;12.98;100.00
54172;BME280;40076;52.354;4.970;2022-10-26T00:45:40;101397.50;;;12.96;100.00
54172;BME280;40076;52.354;4.970;2022-10-26T00:48:21;101393.19;;;12.95;100.00
54172;BME280;40076;52.354;4.970;2022-10-26T00:50:49;101391.28;;;12.96;100.00
54172;BME280;40076;52.354;4.970;2022-10-26T00:53:16;101390.00;;;12.93;100.00
54172;BME280;40076;52.354;4.970;2022-10-26T00:55:47;101385.38;;;12.94;100.00
54172;BME280;40076;52.354;4.970;2022-10-26T00:58:14;101392.41;;;12.95;100.00
54172;BME280;40076;52.354;4.970;2022-10-26T01:00:41;101384.25;;;12.95;100.00
54172;BME280;40076;52.354;4.970;2022-10-26T01:03:08;101381.22;;;12.96;100.00
54172;BME280;40076;52.354;4.970;2022-10-26T01:05:40;101383.16;;;12.96;100.00
54172;BME280;40076;52.354;4.970;2022-10-26T01:08:09;101379.63;;;12.95;100.00
54172;BME280;40076;52.354;4.970;2022-10-26T01:10:36;101376.94;;;12.95;100.00
54172;BME280;40076;52.354;4.970;2022-10-26T01:13:03;101375.31;;;12.94;100.00
54172;BME280;40076;52.354;4.970;2022-10-26T01:21:04;101371.81;;;12.94;100.00
54172;BME280;40076;52.354;4.970;2022-10-26T01:26:29;101363.19;;;12.92;100.00
54172;BME280;40076;52.354;4.970;2022-10-26T01:31:40;101355.38;;;12.90;100.00
54172;BME280;40076;52.354;4.970;2022-10-26T01:34:42;101356.47;;;12.89;100.00
54172;BME280;40076;52.354;4.970;2022-10-26T01:37:08;101345.50;;;12.86;100.00
54172;BME280;40076;52.354;4.970;2022-10-26T01:39:36;101338.97;;;12.87;100.00
54172;BME280;40076;52.354;4.970;2022-10-26T01:42:04;101341.97;;;12.85;100.00
54172;BME280;40076;52.354;4.970;2022-10-26T01:44:36;101335.63;;;12.81;100.00
54172;BME280;40076;52.354;4.970;2022-10-26T01:47:06;101337.69;;;12.84;100.00
54172;BME280;40076;52.354;4.970;2022-10-26T01:49:38;101341.03;;;12.81;100.00
54172;BME280;40076;52.354;4.970;2022-10-26T01:52:08;101337.19;;;12.82;100.00
54172;BME280;40076;52.354;4.970;2022-10-26T01:54:39;101345.81;;;12.84;100.00
54172;BME280;40076;52.354;4.970;2022-10-26T01:57:08;101340.38;;;12.84;100.00
54172;BME280;40076;52.354;4.970;2022-10-26T02:05:22;101320.13;;;12.82;100.00
54172;BME280;40076;52.354;4.970;2022-10-26T02:13:41;101312.34;;;12.80;100.00
54172;BME280;40076;52.354;4.970;2022-10-26T02:19:24;101319.66;;;12.80;100.00
54172;BME280;40076;52.354;4.970;2022-10-26T02:21:56;101312.66;;;12.79;100.00
54172;BME280;40076;52.354;4.970;2022-10-26T02:24:25;101308.03;;;12.79;100.00
54172;BME280;40076;52.354;4.970;2022-10-26T02:26:52;101308.81;;;12.80;100.00
54172;BME280;40076;52.354;4.970;2022-10-26T02:29:22;101307.22;;;12.79;100.00
54172;BME280;40076;52.354;4.970;2022-10-26T02:31:51;101303.41;;;12.80;100.00
54172;BME280;40076;52.354;4.970;2022-10-26T02:34:20;101305.31;;;12.79;100.00
54172;BME280;40076;52.354;4.970;2022-10-26T02:36:49;101308.34;;;12.77;100.00
54172;BME280;40076;52.354;4.970;2022-10-26T02:39:18;101315.69;;;12.77;100.00
54172;BME280;40076;52.354;4.970;2022-10-26T02:41:44;101308.81;;;12.80;100.00
54172;BME280;40076;52.354;4.970;2022-10-26T02:44:22;101301.31;;;12.76;100.00
54172;BME280;40076;52.354;4.970;2022-10-26T02:46:52;101305.16;;;12.75;100.00
54172;BME280;40076;52.354;4.970;2022-10-26T02:49:20;101301.63;;;12.75;100.00
54172;BME280;40076;52.354;4.970;2022-10-26T02:54:54;101292.69;;;12.74;100.00
54172;BME280;40076;52.354;4.970;2022-10-26T02:57:33;101286.47;;;12.74;100.00
54172;BME280;40076;52.354;4.970;2022-10-26T03:00:08;101289.53;;;12.72;100.00
54172;BME280;40076;52.354;4.970;2022-10-26T03:02:34;101285.22;;;12.71;100.00
54172;BME280;40076;52.354;4.970;2022-10-26T03:05:08;101280.91;;;12.70;100.00
54172;BME280;40076;52.354;4.970;2022-10-26T03:07:34;101293.34;;;12.71;100.00
54172;BME280;40076;52.354;4.970;2022-10-26T03:10:00;101286.03;;;12.72;100.00
54172;BME280;40076;52.354;4.970;2022-10-26T03:12:25;101289.84;;;12.71;100.00
54172;BME280;40076;52.354;4.970;2022-10-26T03:14:50;101286.03;;;12.72;100.00
54172;BME280;40076;52.354;4.970;2022-10-26T03:17:18;101285.72;;;12.73;100.00
54172;BME280;40076;52.354;4.970;2022-10-26T03:19:44;101289.19;;;12.74;100.00
54172;BME280;40076;52.354;4.970;2022-10-26T03:22:09;101282.66;;;12.75;100.00
54172;BME280;40076;52.354;4.970;2022-10-26T03:24:37;101281.41;;;12.72;100.00
54172;BME280;40076;52.354;4.970;2022-10-26T03:27:02;101279.50;;;12.73;100.00
54172;BME280;40076;52.354;4.970;2022-10-26T03:29:27;101277.22;;;12.75;100.00
54172;BME280;40076;52.354;4.970;2022-10-26T03:31:53;101272.59;;;12.75;100.00
54172;BME280;40076;52.354;4.970;2022-10-26T03:34:19;101268.78;;;12.76;100.00
54172;BME280;40076;52.354;4.970;2022-10-26T03:36:45;101271.97;;;12.79;100.00
54172;BME280;40076;52.354;4.970;2022-10-26T03:39:10;101271.97;;;12.79;100.00
54172;BME280;40076;52.354;4.970;2022-10-26T03:41:36;101261.91;;;12.79;100.00
54172;BME280;40076;52.354;4.970;2022-10-26T03:44:01;101263.53;;;12.80;100.00
54172;BME280;40076;52.354;4.970;2022-10-26T03:46:26;101260.00;;;12.80;100.00
54172;BME280;40076;52.354;4.970;2022-10-26T03:48:52;101263.16;;;12.82;100.00
54172;BME280;40076;52.354;4.970;2022-10-26T03:51:17;101261.25;;;12.82;100.00
54172;BME280;40076;52.354;4.970;2022-10-26T03:53:42;101266.38;;;12.84;100.00
54172;BME280;40076;52.354;4.970;2022-10-26T03:56:07;101262.53;;;12.85;100.00
54172;BME280;40076;52.354;4.970;2022-10-26T03:58:33;101255.50;;;12.84;100.00
54172;BME280;40076;52.354;4.970;2022-10-26T04:00:58;101257.91;;;12.85;100.00
54172;BME280;40076;52.354;4.970;2022-10-26T04:03:23;101259.50;;;12.86;100.00
54172;BME280;40076;52.354;4.970;2022-10-26T04:05:48;101259.50;;;12.86;100.00
54172;BME280;40076;52.354;4.970;2022-10-26T04:08:14;101253.28;;;12.86;100.00
54172;BME280;40076;52.354;4.970;2022-10-26T04:10:39;101244.03;;;12.87;100.00
54172;BME280;40076;52.354;4.970;2022-10-26T04:13:04;101248.66;;;12.86;100.00
54172;BME280;40076;52.354;4.970;2022-10-26T04:15:30;101245.94;;;12.86;100.00
54172;BME280;40076;52.354;4.970;2022-10-26T04:18:00;101247.53;;;12.87;100.00
54172;BME280;40076;52.354;4.970;2022-10-26T04:20:26;101251.06;;;12.88;100.00
54172;BME280;40076;52.354;4.970;2022-10-26T04:23:00;101250.25;;;12.87;100.00
54172;BME280;40076;52.354;4.970;2022-10-26T04:25:26;101252.66;;;12.89;100.00
54172;BME280;40076;52.354;4.970;2022-10-26T04:27:52;101244.16;;;12.90;100.00
54172;BME280;40076;52.354;4.970;2022-10-26T04:30:18;101233.31;;;12.90;100.00
54172;BME280;40076;52.354;4.970;2022-10-26T04:32:43;101232.19;;;12.91;100.00
54172;BME280;40076;52.354;4.970;2022-10-26T04:35:09;101231.88;;;12.93;100.00
54172;BME280;40076;52.354;4.970;2022-10-26T04:37:34;101232.69;;;12.93;100.00
54172;BME280;40076;52.354;4.970;2022-10-26T04:39:59;101233.16;;;12.95;100.00
54172;BME280;40076;52.354;4.970;2022-10-26T04:42:24;101241.28;;;12.95;100.00
54172;BME280;40076;52.354;4.970;2022-10-26T04:44:50;101234.75;;;12.96;100.00
54172;BME280;40076;52.354;4.970;2022-10-26T04:47:15;101240.63;;;12.98;100.00
54172;BME280;40076;52.354;4.970;2022-10-26T04:49:40;101247.97;;;12.98;100.00
54172;BME280;40076;52.354;4.970;2022-10-26T04:52:06;101250.38;;;12.99;100.00
54172;BME280;40076;52.354;4.970;2022-10-26T04:54:31;101253.88;;;13.00;100.00
54172;BME280;40076;52.354;4.970;2022-10-26T04:56:56;101252.75;;;13.01;100.00
54172;BME280;40076;52.354;4.970;2022-10-26T04:59:22;101246.53;;;13.00;100.00
54172;BME280;40076;52.354;4.970;2022-10-26T05:01:47;101243.50;;;13.02;100.00
54172;BME280;40076;52.354;4.970;2022-10-26T05:04:12;101238.06;;;13.02;100.00
54172;BME280;40076;52.354;4.970;2022-10-26T05:06:38;101241.91;;;13.01;100.00
54172;BME280;40076;52.354;4.970;2022-10-26T05:09:06;101242.38;;;13.03;100.00
54172;BME280;40076;52.354;4.970;2022-10-26T05:11:32;101236.97;;;13.03;100.00
54172;BME280;40076;52.354;4.970;2022-10-26T05:13:57;101238.56;;;13.04;100.00
54172;BME280;40076;52.354;4.970;2022-10-26T05:16:22;101234.69;;;13.05;100.00
54172;BME280;40076;52.354;4.970;2022-10-26T05:18:48;101231.22;;;13.04;100.00
54172;BME280;40076;52.354;4.970;2022-10-26T05:21:16;101228.50;;;13.04;100.00
54172;BME280;40076;52.354;4.970;2022-10-26T05:23:52;101234.69;;;13.05;100.00
54172;BME280;40076;52.354;4.970;2022-10-26T05:26:22;101234.38;;;13.06;100.00
54172;BME280;40076;52.354;4.970;2022-10-26T05:28:48;101235.97;;;13.07;100.00
54172;BME280;40076;52.354;4.970;2022-10-26T05:31:14;101234.06;;;13.08;100.00
54172;BME280;40076;52.354;4.970;2022-10-26T05:33:39;101231.34;;;13.08;100.00
54172;BME280;40076;52.354;4.970;2022-10-26T05:36:05;101227.50;;;13.09;100.00
54172;BME280;40076;52.354;4.970;2022-10-26T05:38:30;101231.81;;;13.10;100.00
54172;BME280;40076;52.354;4.970;2022-10-26T05:40:56;101233.41;;;13.11;100.00
54172;BME280;40076;52.354;4.970;2022-10-26T05:43:22;101226.88;;;13.12;100.00
54172;BME280;40076;52.354;4.970;2022-10-26T05:45:49;101218.41;;;13.13;100.00
54172;BME280;40076;52.354;4.970;2022-10-26T05:48:14;101225.44;;;13.14;100.00
54172;BME280;40076;52.354;4.970;2022-10-26T05:50:40;101223.53;;;13.15;100.00
54172;BME280;40076;52.354;4.970;2022-10-26T05:53:05;101221.59;;;13.16;100.00
54172;BME280;40076;52.354;4.970;2022-10-26T05:55:31;101216.97;;;13.16;100.00
54172;BME280;40076;52.354;4.970;2022-10-26T05:57:56;101222.88;;;13.18;100.00
54172;BME280;40076;52.354;4.970;2022-10-26T06:00:24;101231.47;;;13.20;100.00
54172;BME280;40076;52.354;4.970;2022-10-26T06:03:07;101232.28;;;13.21;100.00
54172;BME280;40076;52.354;4.970;2022-10-26T06:05:49;101235.78;;;13.21;100.00
54172;BME280;40076;52.354;4.970;2022-10-26T06:08:15;101239.78;;;13.24;100.00
54172;BME280;40076;52.354;4.970;2022-10-26T06:10:41;101245.19;;;13.24;100.00
54172;BME280;40076;52.354;4.970;2022-10-26T06:13:06;101250.31;;;13.25;100.00
54172;BME280;40076;52.354;4.970;2022-10-26T06:15:39;101248.38;;;13.26;100.00
54172;BME280;40076;52.354;4.970;2022-10-26T06:18:16;101240.25;;;13.26;100.00
54172;BME280;40076;52.354;4.970;2022-10-26T06:21:13;101241.97;;;13.30;100.00
54172;BME280;40076;52.354;4.970;2022-10-26T06:23:57;101236.22;;;13.32;100.00
54172;BME280;40076;52.354;4.970;2022-10-26T06:29:08;101242.13;;;13.34;100.00
54172;BME280;40076;52.354;4.970;2022-10-26T06:31:36;101241.00;;;13.35;100.00
54172;BME280;40076;52.354;4.970;2022-10-26T06:34:02;101239.84;;;13.36;100.00
54172;BME280;40076;52.354;4.970;2022-10-26T06:36:28;101240.66;;;13.36;100.00
54172;BME280;40076;52.354;4.970;2022-10-26T06:39:01;101242.56;;;13.36;100.00
54172;BME280;40076;52.354;4.970;2022-10-26T06:41:30;101242.72;;;13.39;100.00
54172;BME280;40076;52.354;4.970;2022-10-26T06:43:56;101245.13;;;13.41;100.00
54172;BME280;40076;52.354;4.970;2022-10-26T06:47:08;101249.06;;;13.43;100.00
54172;BME280;40076;52.354;4.970;2022-10-26T06:52:34;101239.69;;;13.41;100.00
54172;BME280;40076;52.354;4.970;2022-10-26T06:55:02;101246.38;;;13.43;100.00
54172;BME280;40076;52.354;4.970;2022-10-26T06:57:35;101239.38;;;13.42;100.00
54172;BME280;40076;52.354;4.970;2022-10-26T07:00:06;101247.50;;;13.42;100.00
54172;BME280;40076;52.354;4.970;2022-10-26T07:02:32;101244.44;;;13.44;100.00
54172;BME280;40076;52.354;4.970;2022-10-26T07:04:58;101243.66;;;13.43;100.00
54172;BME280;40076;52.354;4.970;2022-10-26T07:07:25;101244.44;;;13.44;100.00
54172;BME280;40076;52.354;4.970;2022-10-26T07:09:51;101251.47;;;13.45;100.00
54172;BME280;40076;52.354;4.970;2022-10-26T07:12:17;101252.59;;;13.44;100.00
54172;BME280;40076;52.354;4.970;2022-10-26T07:14:42;101252.59;;;13.44;100.00
54172;BME280;40076;52.354;4.970;2022-10-26T07:17:08;101259.63;;;13.45;100.00
54172;BME280;40076;52.354;4.970;2022-10-26T07:19:34;101260.41;;;13.45;100.00
54172;BME280;40076;52.354;4.970;2022-10-26T07:21:59;101264.41;;;13.48;100.00
54172;BME280;40076;52.354;4.970;2022-10-26T07:24:25;101264.41;;;13.48;100.00
54172;BME280;40076;52.354;4.970;2022-10-26T07:26:53;101280.38;;;13.49;100.00
54172;BME280;40076;52.354;4.970;2022-10-26T07:29:19;101277.31;;;13.51;100.00
54172;BME280;40076;52.354;4.970;2022-10-26T07:31:44;101275.88;;;13.53;100.00
54172;BME280;40076;52.354;4.970;2022-10-26T07:34:10;101268.50;;;13.54;100.00
54172;BME280;40076;52.354;4.970;2022-10-26T07:36:35;101263.56;;;13.56;100.00
54172;BME280;40076;52.354;4.970;2022-10-26T07:39:04;101266.72;;;13.58;100.00
54172;BME280;40076;52.354;4.970;2022-10-26T07:41:33;101263.69;;;13.60;100.00
54172;BME280;40076;52.354;4.970;2022-10-26T07:43:58;101272.63;;;13.60;100.00
54172;BME280;40076;52.354;4.970;2022-10-26T07:46:24;101284.44;;;13.64;100.00
54172;BME280;40076;52.354;4.970;2022-10-26T07:48:49;101286.34;;;13.64;100.00
54172;BME280;40076;52.354;4.970;2022-10-26T07:51:15;101291.91;;;13.67;100.00
54172;BME280;40076;52.354;4.970;2022-10-26T07:53:40;101294.31;;;13.69;100.00
54172;BME280;40076;52.354;4.970;2022-10-26T07:56:06;101292.88;;;13.71;100.00
54172;BME280;40076;52.354;4.970;2022-10-26T07:58:32;101302.25;;;13.74;100.00
54172;BME280;40076;52.354;4.970;2022-10-26T08:01:05;101303.06;;;13.74;100.00
54172;BME280;40076;52.354;4.970;2022-10-26T08:03:30;101299.38;;;13.79;100.00
54172;BME280;40076;52.354;4.970;2022-10-26T08:05:55;101299.06;;;13.80;100.00
54172;BME280;40076;52.354;4.970;2022-10-26T08:08:22;101309.25;;;13.83;100.00
54172;BME280;40076;52.354;4.970;2022-10-26T08:10:47;101321.84;;;13.88;100.00
54172;BME280;40076;52.354;4.970;2022-10-26T08:13:13;101321.19;;;13.91;100.00
54172;BME280;40076;52.354;4.970;2022-10-26T08:15:39;101319.06;;;13.97;100.00
54172;BME280;40076;52.354;4.970;2022-10-26T08:18:05;101318.41;;;14.00;100.00
54172;BME280;40076;52.354;4.970;2022-10-26T08:20:31;101311.97;;;14.04;100.00
54172;BME280;40076;52.354;4.970;2022-10-26T08:22:58;101315.63;;;14.08;100.00
54172;BME280;40076;52.354;4.970;2022-10-26T08:25:23;101320.06;;;14.13;100.00
54172;BME280;40076;52.354;4.970;2022-10-26T08:27:49;101331.88;;;14.17;100.00
54172;BME280;40076;52.354;4.970;2022-10-26T08:30:14;101344.16;;;14.23;100.00
54172;BME280;40076;52.354;4.970;2022-10-26T08:32:40;101332.63;;;14.26;100.00
54172;BME280;40076;52.354;4.970;2022-10-26T08:35:07;101339.44;;;14.32;100.00
54172;BME280;40076;52.354;4.970;2022-10-26T08:37:32;101337.31;;;14.38;100.00
54172;BME280;40076;52.354;4.970;2022-10-26T08:39:57;101339.06;;;14.42;100.00
54172;BME280;40076;52.354;4.970;2022-10-26T08:42:38;101345.13;;;14.48;100.00
54172;BME280;40076;52.354;4.970;2022-10-26T08:45:21;101335.63;;;14.54;100.00
54172;BME280;40076;52.354;4.970;2022-10-26T08:47:53;101340.53;;;14.60;100.00
54172;BME280;40076;52.354;4.970;2022-10-26T08:50:33;101329.78;;;14.64;100.00
54172;BME280;40076;52.354;4.970;2022-10-26T08:53:04;101326.38;;;14.67;100.00
54172;BME280;40076;52.354;4.970;2022-10-26T08:55:39;101331.63;;;14.72;100.00
54172;BME280;40076;52.354;4.970;2022-10-26T08:58:12;101323.13;;;14.74;100.00
54172;BME280;40076;52.354;4.970;2022-10-26T09:00:39;101318.63;;;14.78;100.00
54172;BME280;40076;52.354;4.970;2022-10-26T09:03:12;101323.03;;;14.82;100.00
54172;BME280;40076;52.354;4.970;2022-10-26T09:06:00;101304.78;;;14.83;100.00
54172;BME280;40076;52.354;4.970;2022-10-26T09:11:22;101317.97;;;14.93;100.00
54172;BME280;40076;52.354;4.970;2022-10-26T09:14:16;101328.66;;;14.98;100.00
54172;BME280;40076;52.354;4.970;2022-10-26T09:22:23;101343.44;;;15.09;100.00
54172;BME280;40076;52.354;4.970;2022-10-26T09:24:53;101342.75;;;15.12;100.00
54172;BME280;40076;52.354;4.970;2022-10-26T09:27:28;101337.91;;;15.18;100.00
54172;BME280;40076;52.354;4.970;2022-10-26T09:29:59;101340.72;;;15.21;100.00
54172;BME280;40076;52.354;4.970;2022-10-26T09:32:34;101341.28;;;15.27;100.00
54172;BME280;40076;52.354;4.970;2022-10-26T09:35:08;101334.06;;;15.31;100.00
54172;BME280;40076;52.354;4.970;2022-10-26T09:37:39;101345.84;;;15.35;100.00
54172;BME280;40076;52.354;4.970;2022-10-26T09:42:51;101360.97;;;15.44;100.00
54172;BME280;40076;52.354;4.970;2022-10-26T09:45:27;101353.69;;;15.49;100.00
54172;BME280;40076;52.354;4.970;2022-10-26T09:47:58;101355.44;;;15.53;100.00
54172;BME280;40076;52.354;4.970;2022-10-26T09:50:33;101363.38;;;15.58;100.00
54172;BME280;40076;52.354;4.970;2022-10-26T09:52:58;101374.50;;;15.65;100.00
54172;BME280;40076;52.354;4.970;2022-10-26T09:55:23;101379.84;;;15.62;100.00
54172;BME280;40076;52.354;4.970;2022-10-26T09:57:51;101379.94;;;15.65;100.00
54172;BME280;40076;52.354;4.970;2022-10-26T10:00:19;101376.56;;;15.68;100.00
54172;BME280;40076;52.354;4.970;2022-10-26T10:02:53;101373.59;;;15.73;100.00
54172;BME280;40076;52.354;4.970;2022-10-26T10:05:33;101378.06;;;15.78;100.00
54172;BME280;40076;52.354;4.970;2022-10-26T10:08:16;101384.06;;;15.83;100.00
54172;BME280;40076;52.354;4.970;2022-10-26T10:11:02;101388.16;;;15.90;100.00
54172;BME280;40076;52.354;4.970;2022-10-26T10:13:31;101391.00;;;15.93;100.00
54172;BME280;40076;52.354;4.970;2022-10-26T10:16:05;101403.91;;;15.96;100.00
54172;BME280;40076;52.354;4.970;2022-10-26T10:18:32;101400.19;;;16.01;100.00
54172;BME280;40076;52.354;4.970;2022-10-26T10:20:59;101403.81;;;16.05;100.00
54172;BME280;40076;52.354;4.970;2022-10-26T10:23:30;101410.63;;;16.11;100.00
54172;BME280;40076;52.354;4.970;2022-10-26T10:26:07;101416.19;;;16.14;100.00
54172;BME280;40076;52.354;4.970;2022-10-26T10:28:35;101415.94;;;16.19;100.00
54172;BME280;40076;52.354;4.970;2022-10-26T10:31:03;101420.41;;;16.24;100.00
54172;BME280;40076;52.354;4.970;2022-10-26T10:33:36;101423.22;;;16.28;100.00
54172;BME280;40076;52.354;4.970;2022-10-26T10:36:03;101435.84;;;16.32;100.00
54172;BME280;40076;52.354;4.970;2022-10-26T10:38:36;101437.53;;;16.37;100.00
54172;BME280;40076;52.354;4.970;2022-10-26T10:41:02;101442.41;;;16.43;100.00
54172;BME280;40076;52.354;4.970;2022-10-26T10:43:28;101454.66;;;16.49;100.00
54172;BME280;40076;52.354;4.970;2022-10-26T10:45:55;101449.66;;;16.51;100.00
54172;BME280;40076;52.354;4.970;2022-10-26T10:48:24;101456.81;;;16.56;100.00
54172;BME280;40076;52.354;4.970;2022-10-26T10:51:07;101471.06;;;16.62;100.00
54172;BME280;40076;52.354;4.970;2022-10-26T10:53:48;101466.84;;;16.64;100.00
54172;BME280;40076;52.354;4.970;2022-10-26T10:59:29;101468.63;;;16.72;100.00
54172;BME280;40076;52.354;4.970;2022-10-26T11:07:14;101474.22;;;16.76;100.00
54172;BME280;40076;52.354;4.970;2022-10-26T11:09:44;101480.56;;;16.80;100.00
54172;BME280;40076;52.354;4.970;2022-10-26T11:12:15;101481.47;;;16.84;100.00
54172;BME280;40076;52.354;4.970;2022-10-26T11:14:44;101485.88;;;16.88;100.00
54172;BME280;40076;52.354;4.970;2022-10-26T11:17:21;101477.47;;;16.93;100.00
54172;BME280;40076;52.354;4.970;2022-10-26T11:19:54;101501.00;;;16.98;100.00
54172;BME280;40076;52.354;4.970;2022-10-26T11:22:26;101496.78;;;17.01;100.00
54172;BME280;40076;52.354;4.970;2022-10-26T11:25:04;101493.00;;;17.05;100.00
54172;BME280;40076;52.354;4.970;2022-10-26T11:28:36;101484.13;;;17.08;100.00
54172;BME280;40076;52.354;4.970;2022-10-26T11:31:03;101488.53;;;17.13;100.00
54172;BME280;40076;52.354;4.970;2022-10-26T11:33:35;101487.41;;;17.14;100.00
54172;BME280;40076;52.354;4.970;2022-10-26T11:36:08;101490.59;;;17.16;100.00
54172;BME280;40076;52.354;4.970;2022-10-26T11:38:48;101510.25;;;17.21;100.00
54172;BME280;40076;52.354;4.970;2022-10-26T11:41:20;101509.53;;;17.24;100.00
54172;BME280;40076;52.354;4.970;2022-10-26T11:43:50;101501.00;;;17.26;100.00
54172;BME280;40076;52.354;4.970;2022-10-26T11:46:22;101515.47;;;17.26;100.00
54172;BME280;40076;52.354;4.970;2022-10-26T11:48:55;101514.31;;;17.27;100.00
54172;BME280;40076;52.354;4.970;2022-10-26T11:53:55;101519.19;;;17.34;100.00
54172;BME280;40076;52.354;4.970;2022-10-26T11:56:34;101519.19;;;17.34;100.00
54172;BME280;40076;52.354;4.970;2022-10-26T11:59:02;101522.03;;;17.38;100.00
54172;BME280;40076;52.354;4.970;2022-10-26T12:01:29;101522.91;;;17.42;100.00
54172;BME280;40076;52.354;4.970;2022-10-26T12:03:57;101513.22;;;17.44;100.00
54172;BME280;40076;52.354;4.970;2022-10-26T12:06:29;101509.44;;;17.49;100.00
54172;BME280;40076;52.354;4.970;2022-10-26T12:09:00;101514.56;;;17.50;100.00
54172;BME280;40076;52.354;4.970;2022-10-26T12:11:48;101507.63;;;17.53;100.00
54172;BME280;40076;52.354;4.970;2022-10-26T12:14:34;101523.41;;;17.59;100.00
54172;BME280;40076;52.354;4.970;2022-10-26T12:17:28;101516.91;;;17.64;100.00
54172;BME280;40076;52.354;4.970;2022-10-26T12:20:03;101520.09;;;17.66;100.00
54172;BME280;40076;52.354;4.970;2022-10-26T12:22:33;101527.59;;;17.69;100.00
54172;BME280;40076;52.354;4.970;2022-10-26T12:25:27;101533.59;;;17.74;100.00
54172;BME280;40076;52.354;4.970;2022-10-26T12:27:54;101532.88;;;17.78;100.00
54172;BME280;40076;52.354;4.970;2022-10-26T12:35:43;101541.03;;;17.90;100.00
54172;BME280;40076;52.354;4.970;2022-10-26T12:54:19;101538.22;;;18.02;100.00
54172;BME280;40076;52.354;4.970;2022-10-26T12:57:21;101540.59;;;18.03;100.00
54172;BME280;40076;52.354;4.970;2022-10-26T13:00:04;101545.38;;;18.06;100.00
54172;BME280;40076;52.354;4.970;2022-10-26T13:05:55;101554.91;;;18.12;100.00
54172;BME280;40076;52.354;4.970;2022-10-26T13:08:21;101554.97;;;18.16;100.00
54172;BME280;40076;52.354;4.970;2022-10-26T13:11:02;101564.44;;;18.19;100.00
54172;BME280;40076;52.354;4.970;2022-10-26T13:13:30;101564.88;;;18.21;100.00
54172;BME280;40076;52.354;4.970;2022-10-26T13:15:58;101556.69;;;18.21;100.00
54172;BME280;40076;52.354;4.970;2022-10-26T13:18:25;101560.28;;;18.25;100.00
54172;BME280;40076;52.354;4.970;2022-10-26T13:21:14;101555.25;;;18.27;100.00
54172;BME280;40076;52.354;4.970;2022-10-26T13:24:01;101564.72;;;18.29;100.00
54172;BME280;40076;52.354;4.970;2022-10-26T13:26:31;101560.84;;;18.30;100.00
54172;BME280;40076;52.354;4.970;2022-10-26T13:29:16;101556.50;;;18.29;100.00
54172;BME280;40076;52.354;4.970;2022-10-26T13:34:28;101567.63;;;18.36;100.00
54172;BME280;40076;52.354;4.970;2022-10-26T13:37:18;101566.47;;;18.37;100.00
54172;BME280;40076;52.354;4.970;2022-10-26T13:39:46;101565.75;;;18.40;100.00
54172;BME280;40076;52.354;4.970;2022-10-26T13:42:21;101572.81;;;18.41;100.00
54172;BME280;40076;52.354;4.970;2022-10-26T13:44:54;101572.13;;;18.44;100.00
54172;BME280;40076;52.354;4.970;2022-10-26T13:50:09;101585.19;;;18.51;100.00
54172;BME280;40076;52.354;4.970;2022-10-26T13:52:40;101582.44;;;18.51;100.00
54172;BME280;40076;52.354;4.970;2022-10-26T13:55:35;101586.03;;;18.55;100.00
54172;BME280;40076;52.354;4.970;2022-10-26T14:00:59;101602.16;;;18.57;100.00
54172;BME280;40076;52.354;4.970;2022-10-26T14:03:25;101608.41;;;18.57;99.59
54172;BME280;40076;52.354;4.970;2022-10-26T14:05:50;101609.66;;;18.60;99.92
54172;BME280;40076;52.354;4.970;2022-10-26T14:08:18;101612.06;;;18.61;99.29
54172;BME280;40076;52.354;4.970;2022-10-26T14:10:46;101614.41;;;18.63;99.13
54172;BME280;40076;52.354;4.970;2022-10-26T14:13:15;101619.53;;;18.64;98.53
54172;BME280;40076;52.354;4.970;2022-10-26T14:15:43;101623.06;;;18.65;98.66
54172;BME280;40076;52.354;4.970;2022-10-26T14:18:17;101621.94;;;18.66;97.98
54172;BME280;40076;52.354;4.970;2022-10-26T14:20:56;101625.53;;;18.70;97.84
54172;BME280;40076;52.354;4.970;2022-10-26T14:23:34;101625.53;;;18.70;97.44
54172;BME280;40076;52.354;4.970;2022-10-26T14:25:59;101625.19;;;18.71;97.47